Time;durP1;ratioP1;P1;durP2;ratioP2;P2;SDS_P1;SDS_P2;PMS_P1;PMS_P2;Temp;Humidity;BMP_temperature;BMP_pressure;BME280_temperature;BME280_humidity;BME280_pressure;Samples;Min_cycle;Max_cycle;Signal;HPM_P1;HPM_P2
2022/08/28 00:00:55;;;;;;;8.60;3.03;;;;;;;23.68;65.54;97722.78;4426165;32;20172;-78
2022/08/28 00:03:22;;;;;;;8.77;3.22;;;;;;;23.65;65.24;97707.28;4425944;32;20151;-78
2022/08/28 00:05:49;;;;;;;9.63;2.58;;;;;;;24.02;63.78;97701.69;4425797;32;20137;-78
2022/08/28 00:08:16;;;;;;;6.68;2.65;;;;;;;24.12;62.63;97694.50;4426047;32;20500;-78
2022/08/28 00:10:44;;;;;;;8.40;2.83;;;;;;;23.46;64.45;97692.47;4425789;32;20157;-78
2022/08/28 00:13:17;;;;;;;8.10;2.35;;;;;;;23.71;64.30;97682.94;4426200;32;20466;-78
2022/08/28 00:15:46;;;;;;;7.43;3.00;;;;;;;23.79;63.95;97672.44;4425952;32;20090;-78
2022/08/28 00:18:13;;;;;;;7.25;2.97;;;;;;;23.79;63.70;97674.25;4425902;32;20082;-79
2022/08/28 00:20:41;;;;;;;8.73;2.92;;;;;;;23.72;63.72;97670.63;4426041;32;20098;-79
2022/08/28 00:23:08;;;;;;;7.75;2.97;;;;;;;23.53;64.27;97661.09;4426041;32;20098;-79
2022/08/28 00:25:36;;;;;;;7.12;2.90;;;;;;;24.94;59.34;97655.94;4425627;32;20108;-79
2022/08/28 00:28:06;;;;;;;7.30;2.78;;;;;;;23.18;65.31;97644.44;4426033;32;20104;-79
2022/08/28 00:30:37;;;;;;;11.68;3.17;;;;;;;22.74;67.17;97648.81;4425820;32;20106;-79
2022/08/28 00:33:26;;;;;;;8.18;3.22;;;;;;;24.20;61.74;97647.06;4425830;32;20113;-79
2022/08/28 00:35:54;;;;;;;6.10;2.60;;;;;;;24.75;58.61;97643.91;4426016;32;20085;-79
2022/08/28 00:38:22;;;;;;;6.80;2.80;;;;;;;24.90;57.85;97636.16;4424527;32;20117;-79
2022/08/28 00:40:55;;;;;;;6.35;2.60;;;;;;;25.43;55.84;97624.22;4425863;32;20102;-79
2022/08/28 00:43:35;;;;;;;5.82;2.80;;;;;;;24.94;56.82;97616.34;4426059;32;20158;-79
2022/08/28 00:46:04;;;;;;;7.37;3.03;;;;;;;26.46;52.03;97622.31;4425538;32;20161;-79
2022/08/28 00:48:31;;;;;;;8.05;3.08;;;;;;;26.84;50.80;97632.94;4425975;32;20108;-79
2022/08/28 00:53:46;;;;;;;8.73;3.00;;;;;;;27.59;48.53;97674.47;4424577;32;20115;-79
2022/08/28 00:56:15;;;;;;;8.50;3.10;;;;;;;27.45;49.15;97675.31;4425907;32;20169;-79
2022/08/28 00:58:44;;;;;;;8.70;2.87;;;;;;;27.42;49.15;97673.81;4424612;32;20440;-79
2022/08/28 01:01:12;;;;;;;6.75;2.95;;;;;;;27.07;50.25;97657.59;4424288;32;20116;-79
2022/08/28 01:03:40;;;;;;;7.00;3.20;;;;;;;26.98;50.21;97666.56;4425792;32;20566;-79
2022/08/28 01:06:09;;;;;;;10.20;3.72;;;;;;;26.74;50.54;97659.66;4425340;32;20081;-79
2022/08/28 01:08:38;;;;;;;8.10;3.28;;;;;;;26.79;50.01;97667.03;4425445;32;20142;-79
2022/08/28 01:11:06;;;;;;;5.97;2.92;;;;;;;25.77;52.89;97653.06;4424533;32;20150;-79
2022/08/28 01:13:33;;;;;;;10.23;3.53;;;;;;;26.32;51.50;97643.38;4425246;32;20521;-79
2022/08/28 01:16:01;;;;;;;7.90;3.37;;;;;;;27.27;49.33;97646.50;4437293;32;20158;-79
2022/08/28 01:18:29;;;;;;;7.97;3.03;;;;;;;27.39;48.75;97660.94;4425636;32;20485;-79
2022/08/28 01:21:18;;;;;;;7.62;3.10;;;;;;;27.92;47.12;97661.72;4424099;32;20153;-79
2022/08/28 01:24:02;;;;;;;7.68;3.30;;;;;;;27.21;48.67;97652.50;4437161;32;20534;-79
2022/08/28 01:26:29;;;;;;;6.97;3.35;;;;;;;26.71;50.31;97656.53;4425650;32;20168;-78
2022/08/28 01:28:58;;;;;;;7.15;3.28;;;;;;;26.93;50.00;97645.13;4425328;32;20129;-78
2022/08/28 01:31:27;;;;;;;8.25;3.40;;;;;;;27.00;50.05;97646.03;4425486;32;20480;-78
2022/08/28 01:33:55;;;;;;;7.40;3.30;;;;;;;28.21;46.83;97644.94;4425589;32;20101;-78
2022/08/28 01:36:21;;;;;;;9.27;3.40;;;;;;;27.23;50.25;97639.91;4425349;32;20104;-78
2022/08/28 01:38:53;;;;;;;7.15;2.92;;;;;;;27.83;48.27;97641.59;4425577;32;20102;-78
2022/08/28 01:41:20;;;;;;;9.95;3.53;;;;;;;28.63;45.67;97646.03;4423910;32;20114;-78
2022/08/28 01:43:47;;;;;;;8.85;3.50;;;;;;;28.21;47.08;97648.41;4425028;32;20505;-79
2022/08/28 01:46:14;;;;;;;6.72;3.12;;;;;;;28.49;46.15;97643.22;4425425;32;20146;-79
2022/08/28 01:48:42;;;;;;;9.80;3.55;;;;;;;28.50;46.75;97649.38;4425350;32;20100;-79
2022/08/28 01:51:10;;;;;;;8.77;3.60;;;;;;;28.79;45.62;97649.22;4425374;32;20146;-79
2022/08/28 01:53:37;;;;;;;10.23;3.62;;;;;;;28.63;45.75;97646.03;4425441;32;20780;-79
2022/08/28 01:56:11;;;;;;;9.77;3.80;;;;;;;28.74;45.67;97642.88;4425145;32;20089;-79
2022/08/28 01:58:39;;;;;;;9.38;3.90;;;;;;;27.98;47.91;97645.06;4425523;32;20074;-79
2022/08/28 02:01:17;;;;;;;9.32;3.30;;;;;;;27.80;47.37;97644.63;4424198;32;20462;-79
2022/08/28 02:03:45;;;;;;;10.90;3.65;;;;;;;28.16;46.24;97642.00;4425120;32;20116;-79
2022/08/28 02:06:12;;;;;;;8.65;3.80;;;;;;;28.20;46.60;97648.59;4425069;32;20179;-79
2022/08/28 02:08:40;;;;;;;12.25;4.60;;;;;;;29.29;44.50;97638.63;4425394;32;20111;-79
2022/08/28 02:11:07;;;;;;;12.77;5.15;;;;;;;28.90;45.38;97628.50;4424888;32;20097;-79
2022/08/28 02:13:36;;;;;;;10.00;4.70;;;;;;;28.91;45.11;97628.31;4425310;32;20157;-79
2022/08/28 02:16:05;;;;;;;12.32;4.87;;;;;;;28.68;45.88;97627.69;4425327;32;20103;-79
2022/08/28 02:18:32;;;;;;;11.98;4.68;;;;;;;29.41;44.24;97628.28;4425062;32;20555;-79
2022/08/28 02:21:00;;;;;;;11.05;4.68;;;;;;;29.20;44.72;97629.16;4425128;32;20109;-79
2022/08/28 02:23:27;;;;;;;11.50;5.43;;;;;;;29.32;44.41;97627.59;4425238;32;20512;-79
2022/08/28 02:25:54;;;;;;;10.10;4.75;;;;;;;28.91;45.25;97627.50;4424704;32;20157;-79
2022/08/28 02:28:21;;;;;;;12.88;5.28;;;;;;;29.58;44.22;97627.00;4425228;32;20119;-79
2022/08/28 02:30:48;;;;;;;11.10;4.60;;;;;;;29.07;44.85;97617.44;4424810;32;20090;-79
2022/08/28 02:33:15;;;;;;;13.00;5.25;;;;;;;29.92;42.72;97620.81;4425251;32;20424;-79
2022/08/28 02:35:42;;;;;;;10.80;5.35;;;;;;;29.29;43.99;97628.00;4425052;32;20531;-79
2022/08/28 02:38:09;;;;;;;13.00;5.37;;;;;;;30.09;42.65;97640.75;4424846;32;20463;-79
2022/08/28 02:40:37;;;;;;;13.35;5.75;;;;;;;28.67;45.41;97641.97;4425062;32;20130;-79
2022/08/28 02:43:04;;;;;;;11.35;5.03;;;;;;;28.01;48.60;97643.88;4425156;32;20420;-78
2022/08/28 02:45:31;;;;;;;10.73;4.32;;;;;;;27.16;50.35;97639.81;4424379;32;20164;-78
2022/08/28 02:48:00;;;;;;;8.32;4.18;;;;;;;26.96;50.95;97646.56;4425027;32;20090;-79
2022/08/28 02:50:28;;;;;;;8.73;4.10;;;;;;;26.93;51.17;97637.16;4424862;32;20117;-79
2022/08/28 02:52:56;;;;;;;10.15;4.30;;;;;;;27.13;50.50;97631.41;4424556;32;20165;-79
2022/08/28 02:55:24;;;;;;;10.98;4.32;;;;;;;25.95;54.61;97634.31;4424706;32;20093;-79
2022/08/28 02:57:51;;;;;;;9.95;3.97;;;;;;;25.78;54.78;97632.72;4424913;32;20161;-79
2022/08/28 03:00:21;;;;;;;10.48;4.43;;;;;;;25.75;55.28;97639.19;4424412;32;20107;-79
2022/08/28 03:02:49;;;;;;;10.32;4.00;;;;;;;25.50;56.68;97640.22;4424866;32;20141;-79
2022/08/28 03:05:19;;;;;;;10.13;4.18;;;;;;;26.77;52.93;97640.75;4424317;32;20086;-79
2022/08/28 03:07:47;;;;;;;12.05;4.22;;;;;;;26.32;53.65;97653.94;4424469;32;20160;-79
2022/08/28 03:10:15;;;;;;;9.38;4.28;;;;;;;26.24;54.05;97671.50;4424524;32;20106;-79
2022/08/28 03:12:42;;;;;;;10.52;4.65;;;;;;;25.97;55.33;97669.31;4423310;32;20168;-79
2022/08/28 03:15:09;;;;;;;13.38;4.43;;;;;;;26.26;54.98;97673.97;4424517;32;20116;-79
2022/08/28 03:17:36;;;;;;;9.95;4.20;;;;;;;25.99;55.87;97680.56;4424723;32;20071;-79
2022/08/28 03:20:06;;;;;;;9.77;4.28;;;;;;;26.42;55.40;97675.75;4422991;32;20165;-79
2022/08/28 03:25:19;;;;;;;10.75;5.12;;;;;;;28.55;48.53;97688.59;4424390;32;20103;-78
2022/08/28 03:27:45;;;;;;;10.73;4.57;;;;;;;28.44;48.48;97676.66;4424089;32;20096;-78
2022/08/28 03:30:13;;;;;;;9.98;4.82;;;;;;;27.59;51.54;97679.78;4424385;32;20116;-79
2022/08/28 03:32:40;;;;;;;8.95;4.62;;;;;;;27.74;51.78;97672.69;4424376;32;20093;-79
2022/08/28 03:35:08;;;;;;;10.93;4.55;;;;;;;28.10;50.64;97678.06;4423784;32;20161;-79
2022/08/28 03:37:35;;;;;;;10.35;3.92;;;;;;;27.76;51.61;97686.59;4424465;32;20078;-79
2022/08/28 03:40:03;;;;;;;10.68;4.60;;;;;;;27.20;53.35;97678.16;4424238;32;20139;-79
2022/08/28 03:42:30;;;;;;;11.82;4.40;;;;;;;27.65;52.33;97682.56;4423956;32;20128;-79
2022/08/28 03:44:58;;;;;;;9.55;4.35;;;;;;;27.70;52.28;97686.50;4423993;32;20094;-79
2022/08/28 03:47:27;;;;;;;13.55;5.12;;;;;;;27.99;51.47;97697.09;4424128;32;20100;-79
2022/08/28 03:49:56;;;;;;;12.90;4.78;;;;;;;27.75;51.87;97698.16;4423902;32;20459;-79
2022/08/28 03:52:24;;;;;;;11.10;5.20;;;;;;;27.60;52.53;97698.16;4424127;32;20697;-79
2022/08/28 03:54:51;;;;;;;12.85;4.40;;;;;;;27.59;52.32;97693.03;4423647;32;20145;-79
2022/08/28 03:57:19;;;;;;;10.02;4.87;;;;;;;27.29;53.07;97690.31;4424016;32;20150;-79
2022/08/28 03:59:48;;;;;;;10.65;4.57;;;;;;;27.07;54.07;97696.47;4423841;32;20112;-79
2022/08/28 04:02:17;;;;;;;10.43;4.50;;;;;;;26.67;55.16;97700.22;4423650;32;20124;-79
2022/08/28 04:04:49;;;;;;;12.43;5.05;;;;;;;26.41;56.08;97697.91;4424027;32;20500;-79
2022/08/28 04:07:17;;;;;;;11.52;5.03;;;;;;;26.67;55.57;97703.69;4426055;32;20133;-79
2022/08/28 04:09:45;;;;;;;11.07;4.60;;;;;;;26.10;57.40;97696.03;4425737;32;20467;-79
2022/08/28 04:12:13;;;;;;;11.88;5.40;;;;;;;26.86;55.25;97702.41;4426256;32;20093;-79
2022/08/28 04:14:40;;;;;;;10.73;4.70;;;;;;;27.23;53.90;97712.25;4425982;32;20086;-79
2022/08/28 04:17:07;;;;;;;10.48;4.65;;;;;;;27.21;53.45;97700.16;4425821;32;20833;-79
2022/08/28 04:19:34;;;;;;;11.00;4.93;;;;;;;27.34;52.79;97708.34;4426014;32;20181;-79
2022/08/28 04:22:01;;;;;;;11.43;4.55;;;;;;;27.21;53.10;97705.47;4426127;32;20816;-79
2022/08/28 04:24:28;;;;;;;11.02;4.60;;;;;;;26.63;54.63;97709.50;4425537;32;20098;-79
2022/08/28 04:26:55;;;;;;;11.90;4.70;;;;;;;26.08;56.91;97703.31;4426027;32;20131;-79
2022/08/28 04:29:22;;;;;;;11.70;5.15;;;;;;;26.20;56.81;97711.69;4425874;32;20154;-79
2022/08/28 04:31:50;;;;;;;12.45;5.03;;;;;;;26.18;57.11;97713.69;4425717;32;20109;-79
2022/08/28 04:34:17;;;;;;;11.85;5.05;;;;;;;26.13;57.29;97711.53;4425832;32;20086;-79
2022/08/28 04:36:44;;;;;;;13.27;5.07;;;;;;;26.52;56.23;97713.38;4426153;32;20073;-79
2022/08/28 04:39:12;;;;;;;10.05;4.78;;;;;;;25.65;59.44;97710.69;4425543;32;20094;-79
2022/08/28 04:41:39;;;;;;;11.95;5.37;;;;;;;25.91;59.10;97721.03;4425969;32;20410;-79
2022/08/28 04:44:06;;;;;;;12.73;5.50;;;;;;;26.37;58.08;97723.03;4425589;32;20519;-79
2022/08/28 04:46:34;;;;;;;9.60;4.60;;;;;;;26.49;58.19;97721.69;4425838;32;20082;-79
2022/08/28 04:49:03;;;;;;;14.02;5.05;;;;;;;26.98;56.27;97726.62;4425808;32;20742;-79
2022/08/28 04:51:30;;;;;;;11.38;4.87;;;;;;;26.77;56.85;97727.28;4425424;32;20141;-79
2022/08/28 04:53:58;;;;;;;11.43;4.95;;;;;;;26.71;57.56;97725.34;4425736;32;20453;-79
2022/08/28 04:56:25;;;;;;;10.25;4.62;;;;;;;26.80;57.24;97734.88;4425896;32;20082;-79
2022/08/28 04:58:52;;;;;;;11.10;4.72;;;;;;;27.20;56.15;97728.47;4425515;32;20141;-79
2022/08/28 05:01:23;;;;;;;9.57;4.40;;;;;;;27.27;55.96;97733.91;4424559;32;20401;-79
2022/08/28 05:03:54;;;;;;;11.52;4.78;;;;;;;27.62;54.94;97735.06;4425815;32;20082;-79
2022/08/28 05:06:21;;;;;;;9.18;4.57;;;;;;;27.51;55.39;97738.16;4424014;32;20184;-79
2022/08/28 05:08:49;;;;;;;11.02;4.57;;;;;;;27.36;56.19;97735.47;4425694;32;20108;-79
2022/08/28 05:11:20;;;;;;;10.40;5.32;;;;;;;28.26;52.97;97740.69;4425672;32;20160;-79
2022/08/28 05:14:02;;;;;;;10.00;4.43;;;;;;;28.89;51.31;97733.09;4425350;32;20510;-79
2022/08/28 05:16:29;;;;;;;9.90;4.43;;;;;;;29.79;48.20;97737.78;4436258;32;20078;-79
2022/08/28 05:19:01;;;;;;;8.00;3.80;;;;;;;29.46;49.27;97733.00;4425621;32;20094;-79
2022/08/28 05:21:28;;;;;;;9.63;3.83;;;;;;;30.02;48.38;97735.66;4425682;32;20152;-79
2022/08/28 05:23:56;;;;;;;7.50;3.72;;;;;;;30.60;46.30;97741.44;4425627;32;20165;-79
2022/08/28 05:26:24;;;;;;;10.65;3.53;;;;;;;30.61;46.54;97751.06;4425298;32;20078;-79
2022/08/28 05:28:54;;;;;;;8.70;3.58;;;;;;;31.27;44.72;97751.31;4425721;32;20097;-79
2022/08/28 05:31:22;;;;;;;10.68;3.72;;;;;;;32.01;43.06;97752.91;4425522;32;20101;-79
2022/08/28 05:33:51;;;;;;;8.73;3.60;;;;;;;32.02;43.19;97753.72;4425189;32;20380;-79
2022/08/28 05:36:21;;;;;;;7.65;3.35;;;;;;;32.81;41.31;97756.09;4425668;32;20104;-79
2022/08/28 05:38:55;;;;;;;8.55;3.42;;;;;;;33.02;40.48;97760.34;4425458;32;20440;-79
2022/08/28 05:41:26;;;;;;;8.98;3.30;;;;;;;33.54;39.31;97759.16;4425194;32;20113;-79
2022/08/28 05:43:53;;;;;;;8.68;3.50;;;;;;;33.44;39.32;97769.53;4425552;32;20081;-79
2022/08/28 05:46:21;;;;;;;10.07;3.62;;;;;;;33.53;39.56;97770.06;4425444;32;20086;-79
2022/08/28 05:48:48;;;;;;;8.98;3.95;;;;;;;33.25;40.16;97768.59;4425139;32;20112;-79
2022/08/28 05:51:18;;;;;;;9.93;3.62;;;;;;;33.18;40.39;97765.16;4425461;32;20117;-79
2022/08/28 05:53:48;;;;;;;8.07;3.47;;;;;;;32.66;41.32;97771.59;4425476;32;20125;-79
2022/08/28 05:56:19;;;;;;;6.82;3.40;;;;;;;32.64;41.62;97774.47;4425261;32;20105;-79
2022/08/28 05:58:46;;;;;;;12.75;3.70;;;;;;;33.15;40.53;97768.25;4425538;32;20089;-79
2022/08/28 06:01:18;;;;;;;6.25;2.90;;;;;;;33.19;38.88;97771.34;4425067;32;20113;-79
2022/08/28 06:03:52;;;;;;;9.50;3.05;;;;;;;32.89;39.41;97765.75;4425297;32;20225;-79
2022/08/28 06:06:20;;;;;;;7.37;3.15;;;;;;;32.48;39.30;97775.78;4424905;32;20104;-79
2022/08/28 06:08:47;;;;;;;10.02;4.15;;;;;;;31.84;41.63;97773.03;4423881;32;20098;-79
2022/08/28 06:11:28;;;;;;;7.37;3.60;;;;;;;31.22;43.82;97783.06;4425412;32;20097;-79
2022/08/28 06:14:01;;;;;;;9.38;3.90;;;;;;;31.48;43.65;97784.94;4425337;32;20107;-79
2022/08/28 06:16:29;;;;;;;8.88;3.30;;;;;;;31.24;44.13;97777.53;4423822;32;20125;-79
2022/08/28 06:18:57;;;;;;;9.70;3.30;;;;;;;31.37;43.34;97783.72;4425375;32;20086;-79
2022/08/28 06:21:24;;;;;;;8.50;3.28;;;;;;;31.36;42.68;97787.38;4425223;32;20133;-79
2022/08/28 06:23:51;;;;;;;8.77;3.75;;;;;;;30.94;44.04;97782.34;4424882;32;20409;-79
2022/08/28 06:26:18;;;;;;;9.07;3.60;;;;;;;30.93;44.09;97786.03;4425131;32;20104;-79
2022/08/28 06:28:45;;;;;;;7.68;3.70;;;;;;;30.55;45.24;97791.81;4424801;32;20338;-79
2022/08/28 06:31:12;;;;;;;8.88;3.83;;;;;;;31.37;43.38;97793.53;4424816;32;20115;-79
2022/08/28 06:33:54;;;;;;;8.88;4.05;;;;;;;31.04;44.28;97798.75;4425189;32;20474;-79
2022/08/28 06:36:22;;;;;;;9.65;3.75;;;;;;;30.43;45.68;97794.25;4424814;32;20100;-79
2022/08/28 06:38:49;;;;;;;9.15;3.40;;;;;;;31.18;43.86;97795.12;4425114;32;20094;-79
2022/08/28 06:41:17;;;;;;;6.85;3.28;;;;;;;31.04;43.81;97796.09;4425127;32;20136;-79
2022/08/28 06:43:44;;;;;;;13.25;3.87;;;;;;;30.30;45.39;97798.66;4424713;32;20089;-79
2022/08/28 06:46:11;;;;;;;8.93;3.30;;;;;;;30.26;45.35;97802.72;4424982;32;20103;-79
2022/08/28 06:48:38;;;;;;;8.57;3.70;;;;;;;30.55;45.21;97809.66;4424869;32;20090;-79
2022/08/28 06:51:08;;;;;;;8.75;3.15;;;;;;;30.93;44.51;97802.84;4424595;32;20105;-79
2022/08/28 06:53:36;;;;;;;7.47;3.10;;;;;;;31.56;41.90;97811.38;4424818;32;20147;-79
2022/08/28 06:56:18;;;;;;;8.60;3.30;;;;;;;31.46;42.18;97821.63;4424932;32;20421;-79
2022/08/28 06:58:55;;;;;;;7.53;3.10;;;;;;;31.60;42.33;97820.63;4424660;32;20444;-79
2022/08/28 07:01:27;;;;;;;7.10;3.08;;;;;;;32.49;40.36;97820.16;4424792;32;20440;-79
2022/08/28 07:03:58;;;;;;;9.15;3.28;;;;;;;32.34;39.89;97824.09;4424825;32;20090;-79
2022/08/28 07:06:26;;;;;;;8.40;3.28;;;;;;;31.05;42.22;97817.25;4424315;32;20078;-79
2022/08/28 07:08:53;;;;;;;6.80;3.03;;;;;;;31.67;41.42;97824.09;4424770;32;20129;-79
2022/08/28 07:11:28;;;;;;;7.07;3.30;;;;;;;30.98;43.20;97818.25;4424277;32;20124;-79
2022/08/28 07:13:56;;;;;;;9.05;3.35;;;;;;;32.15;40.55;97823.09;4424598;32;20113;-79
2022/08/28 07:16:26;;;;;;;8.75;3.22;;;;;;;32.00;40.91;97831.28;4424678;32;20129;-79
2022/08/28 07:18:53;;;;;;;7.53;3.30;;;;;;;32.41;38.38;97836.37;4424177;32;20097;-79
2022/08/28 07:21:20;;;;;;;8.82;3.08;;;;;;;32.61;37.09;97838.19;4424437;32;20119;-79
2022/08/28 07:23:48;;;;;;;9.27;3.70;;;;;;;32.60;37.33;97839.22;4424527;32;20209;-79
2022/08/28 07:26:18;;;;;;;7.53;3.12;;;;;;;32.85;37.47;97842.84;4424190;32;20082;-79
2022/08/28 07:28:46;;;;;;;8.85;3.33;;;;;;;32.49;37.64;97835.34;4424538;32;20158;-79
2022/08/28 07:31:15;;;;;;;8.32;3.15;;;;;;;32.36;37.66;97833.53;4424428;32;20103;-79
2022/08/28 07:33:43;;;;;;;8.13;3.60;;;;;;;32.52;38.24;97833.06;4423967;32;20176;-79
2022/08/28 07:36:14;;;;;;;7.65;3.25;;;;;;;32.43;38.16;97836.19;4424355;32;20614;-79
2022/08/28 07:38:56;;;;;;;9.48;3.25;;;;;;;32.30;37.43;97831.69;4424398;32;20106;-79
2022/08/28 07:41:26;;;;;;;9.07;3.25;;;;;;;32.63;37.25;97831.59;4425499;32;20112;-79
2022/08/28 07:46:39;;;;;;;7.90;3.20;;;;;;;33.80;34.95;97842.88;4425923;32;20164;-79
2022/08/28 07:49:07;;;;;;;6.80;3.15;;;;;;;33.29;35.89;97830.50;4426308;32;20217;-79
2022/08/28 07:51:34;;;;;;;6.40;3.00;;;;;;;33.04;36.14;97841.94;4426348;32;20432;-79
2022/08/28 07:54:02;;;;;;;10.00;4.15;;;;;;;33.07;36.45;97833.50;4425884;32;20097;-79
2022/08/28 07:56:30;;;;;;;8.50;3.33;;;;;;;32.99;36.29;97841.75;4426384;32;20082;-79
2022/08/28 07:58:59;;;;;;;8.57;3.28;;;;;;;33.64;35.05;97839.72;4426284;32;20148;-79
2022/08/28 08:01:28;;;;;;;5.85;3.22;;;;;;;34.09;34.77;97844.94;4425901;32;20093;-79
2022/08/28 08:03:57;;;;;;;7.57;3.40;;;;;;;34.23;34.34;97842.94;4426262;32;20155;-79
2022/08/28 08:06:30;;;;;;;7.62;2.92;;;;;;;34.14;34.17;97839.75;4426054;32;20100;-79
2022/08/28 08:09:00;;;;;;;6.40;2.92;;;;;;;33.93;33.63;97838.28;4425758;32;20086;-79
2022/08/28 08:11:27;;;;;;;8.15;3.10;;;;;;;32.96;35.62;97849.38;4426084;32;20098;-79
2022/08/28 08:14:02;;;;;;;8.00;3.00;;;;;;;33.08;35.98;97850.34;4425007;32;20166;-79
2022/08/28 08:16:33;;;;;;;7.80;2.90;;;;;;;33.06;35.15;97847.06;4425841;32;20078;-79
2022/08/28 08:19:01;;;;;;;6.12;2.78;;;;;;;33.21;35.25;97844.13;4426160;32;20161;-79
2022/08/28 08:21:28;;;;;;;5.95;3.00;;;;;;;33.21;35.40;97844.13;4425735;32;20085;-79
2022/08/28 08:23:56;;;;;;;9.13;2.80;;;;;;;33.41;35.13;97846.69;4426003;32;20148;-79
2022/08/28 08:26:26;;;;;;;5.90;2.47;;;;;;;33.86;34.23;97842.03;4426129;32;20467;-79
2022/08/28 08:28:54;;;;;;;5.75;2.70;;;;;;;33.22;34.42;97835.87;4425637;32;20120;-79
2022/08/28 08:31:25;;;;;;;4.95;2.60;;;;;;;32.58;36.00;97838.63;4425988;32;20149;-79
2022/08/28 08:33:56;;;;;;;4.35;2.08;;;;;;;32.91;35.42;97852.69;4425888;32;20366;-79
2022/08/28 08:36:24;;;;;;;4.03;1.60;;;;;;;32.93;32.70;97847.94;4425737;32;20082;-79
2022/08/28 08:38:52;;;;;;;3.37;1.80;;;;;;;32.89;31.40;97853.94;4425944;32;20465;-79
2022/08/28 08:41:29;;;;;;;4.43;1.90;;;;;;;32.84;32.75;97854.56;4425983;32;20542;-79
2022/08/28 08:44:09;;;;;;;3.92;1.73;;;;;;;32.94;33.20;97862.94;4425696;32;20153;-79
2022/08/28 08:46:47;;;;;;;7.18;2.45;;;;;;;32.90;32.37;97866.25;4425983;32;20094;-79
2022/08/28 08:49:17;;;;;;;4.57;1.95;;;;;;;32.28;34.17;97860.41;4425794;32;20106;-79
2022/08/28 08:52:21;;;;;;;7.20;2.20;;;;;;;33.35;32.74;97859.87;4425615;32;20093;-79
2022/08/28 08:55:00;;;;;;;6.85;2.83;;;;;;;33.96;31.88;97865.66;4425763;32;20097;-79
2022/08/28 08:57:28;;;;;;;5.37;2.50;;;;;;;33.40;35.73;97863.78;4425545;32;20097;-79
2022/08/28 08:59:54;;;;;;;3.58;2.25;;;;;;;33.55;35.19;97862.44;4425668;32;20141;-79
2022/08/28 09:02:27;;;;;;;7.07;2.50;;;;;;;32.67;36.07;97858.72;4425765;32;20137;-79
2022/08/28 09:05:10;;;;;;;6.12;2.37;;;;;;;32.94;36.56;97870.12;4425439;32;20504;-79
2022/08/28 09:08:01;;;;;;;5.30;2.50;;;;;;;32.43;37.81;97873.56;4425497;32;20099;-79
2022/08/28 09:10:36;;;;;;;5.95;2.00;;;;;;;31.52;39.13;97876.00;4424635;32;20162;-79
2022/08/28 09:13:19;;;;;;;6.35;2.40;;;;;;;31.59;37.16;97872.31;4425882;32;20098;-79
2022/08/28 09:15:46;;;;;;;6.72;2.12;;;;;;;30.62;39.39;97869.06;4437361;32;20143;-79
2022/08/28 09:18:21;;;;;;;5.90;2.28;;;;;;;32.07;36.81;97874.00;4425554;32;20492;-79
2022/08/28 09:20:52;;;;;;;7.95;2.53;;;;;;;32.75;34.65;97878.00;4425768;32;20153;-79
2022/08/28 09:23:21;;;;;;;3.80;1.95;;;;;;;33.36;33.56;97877.56;4425790;32;20101;-79
2022/08/28 09:25:50;;;;;;;6.25;2.15;;;;;;;33.61;33.59;97874.13;4425202;32;20081;-79
2022/08/28 09:28:33;;;;;;;5.93;2.30;;;;;;;33.96;33.54;97879.03;4424432;32;20166;-79
2022/08/28 09:31:06;;;;;;;4.53;2.28;;;;;;;35.39;31.02;97879.56;4424476;32;20165;-79
2022/08/28 09:33:40;;;;;;;3.20;1.90;;;;;;;34.71;32.40;97877.09;4425428;32;20109;-79
2022/08/28 09:36:31;;;;;;;4.30;2.08;;;;;;;35.87;29.64;97879.47;4424572;32;20120;-79
2022/08/28 09:39:07;;;;;;;7.28;2.70;;;;;;;36.75;28.14;97888.47;4425366;32;20161;-79
2022/08/28 09:45:06;;;;;;;4.50;1.95;;;;;;;36.11;29.47;97879.50;4424518;32;20116;-79
2022/08/28 09:47:47;;;;;;;4.03;2.10;;;;;;;35.77;29.54;97881.06;4436516;32;20085;-79
2022/08/28 09:50:30;;;;;;;4.85;2.30;;;;;;;35.48;30.10;97872.00;4425528;32;20448;-79
2022/08/28 09:53:08;;;;;;;6.10;2.65;;;;;;;34.38;33.53;97870.22;4425227;32;20136;-79
2022/08/28 09:55:43;;;;;;;6.12;2.55;;;;;;;32.98;35.59;97882.06;4425404;32;20094;-79
2022/08/28 09:58:10;;;;;;;6.18;2.70;;;;;;;34.14;34.92;97882.59;4425550;32;20598;-79
2022/08/28 10:00:49;;;;;;;7.72;2.90;;;;;;;33.84;34.51;97877.03;4425061;32;20086;-79
2022/08/28 10:03:30;;;;;;;4.22;2.37;;;;;;;35.94;31.77;97884.72;4423630;32;20508;-79
2022/08/28 10:06:21;;;;;;;4.60;2.53;;;;;;;36.71;30.02;97879.25;4423991;32;20129;-79
2022/08/28 10:08:57;;;;;;;5.50;2.40;;;;;;;37.79;27.79;97875.72;4424983;32;20103;-79
2022/08/28 10:11:48;;;;;;;8.52;2.90;;;;;;;37.33;28.39;97877.59;4425456;32;20447;-79
2022/08/28 10:14:46;;;;;;;4.87;2.50;;;;;;;37.17;29.00;97872.13;4425013;32;20120;-79
2022/08/28 10:17:35;;;;;;;7.80;2.40;;;;;;;37.80;26.45;97876.53;4424272;32;20106;-79
2022/08/28 10:20:12;;;;;;;8.88;2.75;;;;;;;38.26;25.36;97874.56;4424040;32;20164;-79
2022/08/28 10:22:48;;;;;;;8.27;2.75;;;;;;;37.81;27.52;97876.28;4423759;32;20191;-79
2022/08/28 10:25:20;;;;;;;;;;;;;;;36.88;25.78;97872.09;4425466;32;20113;-79
2022/08/28 10:27:55;;;;;;;6.37;2.35;;;;;;;36.70;27.46;97865.00;4436535;32;20006;-79
2022/08/28 10:30:23;;;;;;;7.03;2.30;;;;;;;36.20;28.12;97870.03;4425199;32;20090;-79
2022/08/28 10:33:13;;;;;;;5.37;2.33;;;;;;;36.74;27.30;97865.34;4436733;32;20372;-79
2022/08/28 10:36:05;;;;;;;5.35;2.60;;;;;;;36.77;27.16;97871.03;4423605;32;20373;-79
2022/08/28 10:38:38;;;;;;;7.37;2.37;;;;;;;36.90;27.38;97869.16;4424077;32;20169;-79
2022/08/28 10:41:23;;;;;;;5.95;2.75;;;;;;;35.96;29.14;97865.72;4425155;32;20094;-79
2022/08/28 10:43:52;;;;;;;6.50;2.83;;;;;;;36.87;27.93;97872.34;4423568;32;20108;-79
2022/08/28 10:46:35;;;;;;;7.37;2.75;;;;;;;36.63;28.50;97867.00;4424009;32;20184;-79
2022/08/28 10:49:16;;;;;;;7.32;2.65;;;;;;;37.53;27.20;97863.66;4423573;32;20120;-79
2022/08/28 10:51:49;;;;;;;6.07;2.70;;;;;;;37.10;27.77;97864.19;4436673;32;20156;-79
2022/08/28 10:54:22;;;;;;;6.35;2.80;;;;;;;36.55;28.22;97866.53;4424906;32;20089;-79
2022/08/28 10:57:30;;;;;;;6.62;2.75;;;;;;;37.07;27.46;97864.66;4424592;32;20404;-79
2022/08/28 11:00:12;;;;;;;6.75;2.58;;;;;;;37.06;27.74;97861.16;4422981;32;20097;-79
2022/08/28 11:03:07;;;;;;;5.43;2.60;;;;;;;36.44;27.70;97857.44;4425056;32;20100;-79
2022/08/28 11:06:00;;;;;;;9.80;2.85;;;;;;;36.46;27.91;97861.50;4424752;32;20086;-79
2022/08/28 11:08:30;;;;;;;7.37;2.75;;;;;;;36.97;27.74;97857.22;4424779;32;20161;-79
2022/08/28 11:10:59;;;;;;;6.97;2.95;;;;;;;35.47;29.39;97854.28;4423228;32;20121;-79
2022/08/28 11:13:54;;;;;;;6.78;2.53;;;;;;;36.21;29.05;97863.62;4424726;32;20145;-79
2022/08/28 11:16:23;;;;;;;9.35;3.20;;;;;;;35.57;29.69;97859.91;4426118;32;20090;-79
2022/08/28 11:18:51;;;;;;;6.45;2.83;;;;;;;36.88;28.36;97857.84;4426293;32;20090;-79
2022/08/28 11:21:23;;;;;;;8.52;2.80;;;;;;;37.42;27.52;97861.03;4426438;32;20111;-79
2022/08/28 11:24:09;;;;;;;5.50;2.90;;;;;;;35.89;29.48;97852.41;4425207;32;20139;-79
2022/08/28 11:26:55;;;;;;;7.22;3.10;;;;;;;37.08;27.86;97859.06;4426622;32;20469;-79
2022/08/28 11:29:57;;;;;;;8.70;3.13;;;;;;;37.78;27.26;97855.25;4425171;32;20110;-79
2022/08/28 11:32:37;;;;;;;5.53;2.83;;;;;;;37.03;27.92;97855.47;4426213;32;20153;-79
2022/08/28 11:35:47;;;;;;;7.68;2.75;;;;;;;37.41;27.57;97857.53;4426350;32;20140;-79
2022/08/28 11:38:39;;;;;;;8.02;3.10;;;;;;;37.42;27.39;97858.34;4426299;32;20093;-79
2022/08/28 11:41:25;;;;;;;7.45;2.90;;;;;;;36.65;27.98;97856.81;4426231;32;20128;-79
2022/08/28 11:44:13;;;;;;;7.60;3.10;;;;;;;36.06;28.77;97847.97;4425277;32;20479;-79
2022/08/28 11:46:43;;;;;;;6.87;2.95;;;;;;;34.11;32.43;97847.38;4426054;32;20104;-79
2022/08/28 11:49:25;;;;;;;7.07;3.20;;;;;;;36.42;29.46;97846.94;4426359;32;20425;-79
2022/08/28 11:52:02;;;;;;;7.05;3.33;;;;;;;36.74;28.29;97844.63;4426345;32;20404;-79
2022/08/28 11:54:50;;;;;;;8.65;3.30;;;;;;;35.72;30.45;97848.72;4426307;32;20136;-79
2022/08/28 11:57:30;;;;;;;9.32;3.08;;;;;;;35.60;30.21;97843.34;4426383;32;20089;-79
2022/08/28 12:00:07;;;;;;;8.38;3.05;;;;;;;36.85;28.26;97836.81;4426007;32;20145;-79
2022/08/28 12:02:37;;;;;;;7.10;3.00;;;;;;;37.39;27.47;97850.75;4426330;32;20155;-79
2022/08/28 12:05:31;;;;;;;8.15;3.50;;;;;;;37.98;26.81;97851.25;4426110;32;20437;-79